Time;durP1;ratioP1;P1;durP2;ratioP2;P2;SDS_P1;SDS_P2;PMS_P1;PMS_P2;Temp;Humidity;BMP_temperature;BMP_pressure;BME280_temperature;BME280_humidity;BME280_pressure;Samples;Min_cycle;Max_cycle;Signal;HPM_P1;HPM_P2
2022/04/29 00:00:18;;;;;;;1.15;0.80;;;;;;;22.21;35.10;99868.00;5092253;28;20061;-64
2022/04/29 00:02:45;;;;;;;1.00;0.70;;;;;;;22.21;34.96;99868.78;5093088;28;20052;-64
2022/04/29 00:05:11;;;;;;;0.75;0.60;;;;;;;22.21;35.17;99876.34;5092853;28;20040;-64
2022/04/29 00:07:40;;;;;;;1.63;0.80;;;;;;;22.20;35.09;99875.56;5092871;28;20588;-64
2022/04/29 00:10:14;;;;;;;0.95;0.65;;;;;;;22.16;35.19;99869.13;5092970;28;20127;-64
2022/04/29 00:12:41;;;;;;;0.77;0.50;;;;;;;22.17;34.95;99876.31;5075288;28;20487;-63
2022/04/29 00:15:11;;;;;;;0.73;0.60;;;;;;;22.15;35.15;99875.09;5092801;28;20078;-67
2022/04/29 00:17:37;;;;;;;1.25;0.88;;;;;;;22.13;35.22;99880.22;5092773;28;20055;-67
2022/04/29 00:20:04;;;;;;;1.10;0.80;;;;;;;22.15;35.30;99878.69;5092876;28;20192;-67
2022/04/29 00:22:29;;;;;;;1.42;0.90;;;;;;;22.16;35.33;99891.44;5092701;28;20040;-67
2022/04/29 00:24:55;;;;;;;1.40;0.80;;;;;;;22.17;35.07;99895.00;5092567;28;20059;-67
2022/04/29 00:27:20;;;;;;;1.77;0.93;;;;;;;22.17;35.22;99887.47;5092614;28;20040;-67
2022/04/29 00:29:46;;;;;;;1.05;0.70;;;;;;;22.14;35.31;99893.75;5092748;28;20119;-67
2022/04/29 00:32:11;;;;;;;1.33;0.80;;;;;;;22.13;35.24;99888.56;5092639;28;20066;-64
2022/04/29 00:34:37;;;;;;;1.00;0.70;;;;;;;22.12;35.29;99882.19;5092491;28;20036;-64
2022/04/29 00:37:02;;;;;;;1.10;0.77;;;;;;;22.12;35.01;99884.97;5092609;28;20051;-64
2022/04/29 00:39:28;;;;;;;0.75;0.63;;;;;;;22.12;35.34;99892.53;5092358;28;20043;-65
2022/04/29 00:41:53;;;;;;;0.90;0.80;;;;;;;22.12;35.05;99887.75;5092464;28;20040;-64
2022/04/29 00:44:18;;;;;;;0.73;0.60;;;;;;;22.11;35.17;99883.38;5092530;28;20048;-64
2022/04/29 00:46:46;;;;;;;1.08;0.68;;;;;;;22.10;35.33;99880.97;5074161;28;20044;-64
2022/04/29 00:49:14;;;;;;;1.15;0.80;;;;;;;22.09;35.39;99880.16;5092356;28;20044;-64
2022/04/29 00:51:49;;;;;;;1.23;0.70;;;;;;;22.07;35.26;99879.66;5092393;28;20123;-64
2022/04/29 00:54:23;;;;;;;1.15;0.70;;;;;;;22.09;35.14;99874.59;5092188;28;20048;-63
2022/04/29 00:56:51;;;;;;;1.05;0.70;;;;;;;22.09;34.79;99871.00;5074130;28;20097;-64
2022/04/29 00:59:24;;;;;;;1.00;0.75;;;;;;;22.08;34.72;99878.56;5074428;28;20036;-64
2022/04/29 01:01:51;;;;;;;1.30;0.80;;;;;;;22.08;35.12;99875.78;5092261;28;20121;-64
2022/04/29 01:04:24;;;;;;;1.10;0.60;;;;;;;22.08;34.75;99872.97;5092155;28;20039;-64
2022/04/29 01:06:50;;;;;;;0.88;0.52;;;;;;;22.08;34.74;99883.28;5101953;28;20065;-64
2022/04/29 01:09:15;;;;;;;1.25;0.80;;;;;;;22.08;35.01;99883.28;5112476;28;20118;-64
2022/04/29 01:11:40;;;;;;;1.00;0.73;;;;;;;22.08;35.04;99878.56;5112414;28;20128;-67
2022/04/29 01:14:06;;;;;;;1.13;0.70;;;;;;;22.09;34.98;99885.72;5112102;28;20040;-67
2022/04/29 01:16:32;;;;;;;1.25;0.70;;;;;;;22.08;34.73;99878.56;5096411;28;20180;-67
2022/04/29 01:18:58;;;;;;;1.20;0.82;;;;;;;22.07;34.65;99876.88;5091702;28;20044;-67
2022/04/29 01:21:25;;;;;;;0.95;0.70;;;;;;;22.08;34.82;99883.28;5103300;28;20043;-67
2022/04/29 01:23:53;;;;;;;1.15;0.73;;;;;;;22.06;34.81;99883.63;5112322;28;20557;-64
2022/04/29 01:26:18;;;;;;;0.70;0.57;;;;;;;22.04;34.92;99883.22;5112086;28;20042;-64
2022/04/29 01:28:45;;;;;;;0.98;0.73;;;;;;;22.05;34.82;99879.25;5112136;28;20036;-64
2022/04/29 01:31:14;;;;;;;1.05;0.82;;;;;;;22.04;35.06;99885.19;5112166;28;20134;-64
2022/04/29 01:33:47;;;;;;;1.20;0.80;;;;;;;22.04;35.09;99882.41;5112046;28;20048;-67
2022/04/29 01:36:13;;;;;;;1.17;0.70;;;;;;;22.04;35.08;99882.41;5112000;28;20097;-67
2022/04/29 01:38:39;;;;;;;1.25;0.70;;;;;;;22.02;34.92;99885.56;5111841;28;20040;-67
2022/04/29 01:41:05;;;;;;;1.05;0.73;;;;;;;22.02;34.97;99882.78;5111863;28;20379;-67
2022/04/29 01:43:35;;;;;;;1.50;0.85;;;;;;;22.02;35.21;99882.00;5111805;28;20128;-67
2022/04/29 01:46:02;;;;;;;1.27;0.77;;;;;;;22.02;34.76;99890.34;5111915;28;20040;-67
2022/04/29 01:48:28;;;;;;;0.70;0.50;;;;;;;22.02;34.92;99882.00;5111896;28;20040;-67
2022/04/29 01:50:53;;;;;;;0.60;0.60;;;;;;;22.01;35.06;99885.94;5111733;28;20047;-67
2022/04/29 01:53:19;;;;;;;0.90;0.70;;;;;;;21.99;35.08;99889.09;5111769;28;20445;-67
2022/04/29 01:55:44;;;;;;;1.00;0.75;;;;;;;21.99;35.23;99887.09;5111656;28;20043;-67
2022/04/29 01:58:10;;;;;;;1.08;0.70;;;;;;;21.99;34.86;99892.69;5111681;28;20039;-64
2022/04/29 02:00:36;;;;;;;1.13;0.70;;;;;;;22.01;34.73;99889.53;5111632;28;20039;-64
2022/04/29 02:03:02;;;;;;;1.02;0.60;;;;;;;21.97;34.88;99883.91;5111453;28;20043;-64
2022/04/29 02:05:28;;;;;;;0.93;0.68;;;;;;;21.95;35.37;99888.25;5111439;28;20119;-64
2022/04/29 02:07:54;;;;;;;1.20;0.70;;;;;;;21.94;35.14;99890.22;5111399;28;20442;-67
2022/04/29 02:10:20;;;;;;;1.05;0.70;;;;;;;21.94;35.21;99889.41;5111754;28;20161;-67
2022/04/29 02:12:46;;;;;;;1.33;0.82;;;;;;;21.92;35.15;99889.75;5111723;28;20074;-67
2022/04/29 02:15:12;;;;;;;0.90;0.68;;;;;;;21.91;35.26;99882.59;5111452;28;20652;-67
2022/04/29 02:17:38;;;;;;;0.93;0.75;;;;;;;21.92;35.13;99880.59;5111164;28;20052;-67
2022/04/29 02:20:04;;;;;;;0.80;0.70;;;;;;;21.89;35.26;99882.16;5111226;28;20127;-67
2022/04/29 02:22:30;;;;;;;1.00;0.63;;;;;;;21.88;35.20;99876.97;5110708;28;20419;-67
2022/04/29 02:24:58;;;;;;;1.25;0.65;;;;;;;21.88;35.40;99875.00;5111072;28;20043;-67
2022/04/29 02:27:23;;;;;;;1.08;0.70;;;;;;;21.88;35.35;99871.41;5111280;28;20134;-67
2022/04/29 02:29:48;;;;;;;1.58;0.75;;;;;;;21.88;35.38;99875.00;5111056;28;20173;-67
2022/04/29 02:32:14;;;;;;;1.38;0.80;;;;;;;21.88;35.25;99872.19;5111030;28;20503;-67
2022/04/29 02:34:41;;;;;;;1.30;0.82;;;;;;;21.88;35.49;99869.41;5111029;28;20156;-67
2022/04/29 02:37:07;;;;;;;0.90;0.70;;;;;;;21.87;35.24;99867.81;5111128;28;20077;-67
2022/04/29 02:39:32;;;;;;;0.90;0.60;;;;;;;21.87;35.23;99872.59;5099733;28;20083;-67
2022/04/29 02:41:58;;;;;;;1.02;0.68;;;;;;;21.85;35.55;99877.69;5069939;28;20039;-67
2022/04/29 02:44:23;;;;;;;1.15;0.73;;;;;;;21.85;35.56;99864.56;5089490;28;20036;-64
2022/04/29 02:47:07;;;;;;;2.85;0.70;;;;;;;21.86;35.83;99868.16;5090596;28;20040;-64
2022/04/29 02:49:38;;;;;;;0.60;0.60;;;;;;;21.85;35.79;99863.78;5090835;28;20519;-67
2022/04/29 02:52:13;;;;;;;1.30;0.77;;;;;;;21.84;35.88;99873.31;5070448;28;20524;-67
2022/04/29 02:54:40;;;;;;;1.13;0.68;;;;;;;21.84;35.50;99876.88;5070190;28;20036;-67
2022/04/29 02:57:06;;;;;;;1.75;0.80;;;;;;;21.83;35.67;99866.94;5070236;28;20080;-67
2022/04/29 02:59:31;;;;;;;1.48;0.90;;;;;;;21.84;35.35;99865.75;5070222;28;20075;-67
2022/04/29 03:01:57;;;;;;;1.23;0.80;;;;;;;21.84;35.64;99864.94;5070084;28;20040;-64
2022/04/29 03:04:23;;;;;;;1.33;0.82;;;;;;;21.83;35.41;99866.94;5069951;28;20068;-63
2022/04/29 03:06:48;;;;;;;0.63;0.52;;;;;;;21.83;35.58;99866.94;5070120;28;20045;-64
2022/04/29 03:09:14;;;;;;;1.08;0.70;;;;;;;21.82;35.43;99870.91;5089264;28;20182;-64
2022/04/29 03:11:40;;;;;;;1.42;0.80;;;;;;;21.81;35.53;99869.28;5090100;28;20086;-63
2022/04/29 03:14:06;;;;;;;1.15;0.70;;;;;;;21.82;35.61;99876.47;5090097;28;20048;-67
2022/04/29 03:16:32;;;;;;;1.05;0.70;;;;;;;21.82;35.69;99884.03;5089888;28;20044;-67
2022/04/29 03:18:58;;;;;;;1.15;0.77;;;;;;;21.82;35.59;99876.47;5070658;28;20097;-67
2022/04/29 03:21:24;;;;;;;0.95;0.70;;;;;;;21.83;35.41;99880.84;5069609;28;20044;-67
2022/04/29 03:23:49;;;;;;;1.27;0.70;;;;;;;21.83;35.77;99882.84;5069515;28;20068;-64
2022/04/29 03:26:15;;;;;;;1.25;0.73;;;;;;;21.82;35.75;99887.59;5069747;28;20515;-64
2022/04/29 03:28:41;;;;;;;1.20;0.70;;;;;;;21.82;35.91;99884.03;5069780;28;20492;-64
2022/04/29 03:31:06;;;;;;;0.70;0.60;;;;;;;21.81;35.96;99886.00;5069659;28;20441;-67
2022/04/29 03:33:32;;;;;;;1.30;0.80;;;;;;;21.81;35.82;99880.44;5087811;28;20058;-67
2022/04/29 03:35:57;;;;;;;0.90;0.70;;;;;;;21.80;35.82;99887.19;5089846;28;20047;-67
2022/04/29 03:38:26;;;;;;;0.85;0.60;;;;;;;21.79;36.01;99896.72;5071698;28;20067;-64
2022/04/29 03:40:53;;;;;;;1.00;0.60;;;;;;;21.79;35.88;99888.34;5069546;28;20053;-64
2022/04/29 03:43:19;;;;;;;1.20;0.80;;;;;;;21.79;35.97;99880.00;5069504;28;20056;-64
2022/04/29 03:45:45;;;;;;;0.90;0.70;;;;;;;21.80;35.79;99878.03;5069438;28;20420;-64
2022/04/29 03:48:11;;;;;;;1.20;0.70;;;;;;;21.79;35.91;99874.44;5069559;28;20136;-63
2022/04/29 03:50:36;;;;;;;1.10;0.73;;;;;;;21.78;35.87;99880.34;5069348;28;20049;-64
2022/04/29 03:53:03;;;;;;;1.17;0.70;;;;;;;21.77;35.86;99893.47;5069320;28;20213;-64
2022/04/29 03:55:31;;;;;;;1.08;0.77;;;;;;;21.78;35.63;99897.06;5069356;28;20051;-64
2022/04/29 03:57:58;;;;;;;1.10;0.80;;;;;;;21.77;35.98;99893.47;5069189;28;20053;-64
2022/04/29 04:00:25;;;;;;;1.60;0.90;;;;;;;21.77;35.85;99889.88;5069196;28;20053;-64
2022/04/29 04:02:51;;;;;;;0.90;0.70;;;;;;;21.76;36.10;99891.88;5069354;28;20037;-63
2022/04/29 04:05:19;;;;;;;1.10;0.70;;;;;;;21.74;35.91;99883.09;5069121;28;20052;-67
2022/04/29 04:07:46;;;;;;;1.27;0.80;;;;;;;21.74;36.23;99891.44;5085622;28;20519;-67
2022/04/29 04:10:12;;;;;;;1.23;0.80;;;;;;;21.75;36.01;99895.81;5089323;28;20040;-67
2022/04/29 04:12:48;;;;;;;0.93;0.70;;;;;;;21.75;36.37;99898.63;5089376;28;20056;-67
2022/04/29 04:15:15;;;;;;;1.30;0.80;;;;;;;21.76;35.73;99899.41;5089324;28;20093;-67
2022/04/29 04:17:41;;;;;;;1.17;0.77;;;;;;;21.73;35.98;99898.19;5089158;28;20504;-67
2022/04/29 04:20:08;;;;;;;1.45;0.73;;;;;;;21.76;36.11;99900.22;5089447;28;20559;-63
2022/04/29 04:22:37;;;;;;;0.95;0.70;;;;;;;21.79;35.77;99893.09;5089229;28;20051;-64
2022/04/29 04:25:07;;;;;;;1.05;0.80;;;;;;;21.77;35.87;99896.25;5072738;28;20048;-64
2022/04/29 04:27:33;;;;;;;1.27;0.80;;;;;;;21.84;36.06;99907.53;5068853;28;20048;-64
2022/04/29 04:30:00;;;;;;;0.70;0.63;;;;;;;21.84;36.10;99910.31;5068620;28;20045;-64
2022/04/29 04:32:26;;;;;;;1.33;0.90;;;;;;;21.85;35.81;99903.56;5068858;28;20052;-65
2022/04/29 04:34:57;;;;;;;1.50;0.85;;;;;;;21.86;35.89;99907.16;5068822;28;20056;-64
2022/04/29 04:37:29;;;;;;;1.23;0.75;;;;;;;21.87;36.01;99912.38;5068799;28;20416;-67
2022/04/29 04:39:58;;;;;;;1.92;0.98;;;;;;;21.88;35.64;99913.97;5068825;28;20040;-67
2022/04/29 04:42:24;;;;;;;0.90;0.70;;;;;;;21.89;35.92;99906.44;5068829;28;20538;-67
2022/04/29 04:44:51;;;;;;;1.10;0.82;;;;;;;21.89;35.79;99915.59;5069475;28;20500;-67
2022/04/29 04:47:18;;;;;;;1.10;0.80;;;;;;;21.90;35.94;99919.97;5072323;28;20064;-64
2022/04/29 04:49:43;;;;;;;1.10;0.77;;;;;;;21.89;35.94;99921.16;5072238;28;20071;-63
2022/04/29 04:52:09;;;;;;;1.30;0.70;;;;;;;21.90;35.80;99921.97;5072213;28;20420;-64
2022/04/29 04:54:36;;;;;;;1.35;0.90;;;;;;;21.91;35.98;99929.13;5072045;28;20064;-64
2022/04/29 04:57:02;;;;;;;0.95;0.70;;;;;;;21.93;35.75;99924.81;5072204;28;20044;-67
2022/04/29 04:59:27;;;;;;;1.35;0.85;;;;;;;21.92;35.93;99933.53;5074713;28;20060;-67
2022/04/29 05:01:53;;;;;;;1.20;0.70;;;;;;;21.91;35.98;99935.50;5073251;28;20048;-64
2022/04/29 05:04:19;;;;;;;1.40;0.88;;;;;;;21.92;36.22;99939.09;5071940;28;20503;-64
2022/04/29 05:06:45;;;;;;;1.55;0.80;;;;;;;21.92;36.14;99939.09;5071844;28;20140;-64
2022/04/29 05:09:10;;;;;;;0.95;0.70;;;;;;;21.92;36.14;99948.25;5071731;28;20098;-64
2022/04/29 05:11:36;;;;;;;1.42;0.95;;;;;;;21.92;36.20;99945.47;5071851;28;20425;-64
2022/04/29 05:14:01;;;;;;;1.10;0.80;;;;;;;21.94;36.55;99953.47;5071674;28;20040;-64
2022/04/29 05:16:27;;;;;;;1.17;0.65;;;;;;;21.94;36.36;99956.25;5080254;28;20050;-67
2022/04/29 05:18:52;;;;;;;1.00;0.70;;;;;;;21.95;36.56;99955.09;5092018;28;20051;-67
2022/04/29 05:21:18;;;;;;;0.95;0.70;;;;;;;21.94;36.86;99951.50;5091828;28;20044;-65
2022/04/29 05:23:43;;;;;;;1.48;0.98;;;;;;;21.94;36.69;99962.63;5091659;28;20116;-64
2022/04/29 05:26:09;;;;;;;1.02;0.70;;;;;;;21.94;36.73;99954.28;5091862;28;20135;-64
2022/04/29 05:28:35;;;;;;;1.00;0.70;;;;;;;21.95;36.68;99969.81;5091806;28;20040;-64
2022/04/29 05:31:01;;;;;;;1.30;0.90;;;;;;;21.95;36.54;99972.59;5091643;28;20055;-63
2022/04/29 05:33:27;;;;;;;1.27;0.80;;;;;;;21.96;36.90;99977.00;5091353;28;20436;-65
2022/04/29 05:35:54;;;;;;;2.60;0.90;;;;;;;21.95;36.76;99978.16;5091416;28;20040;-64
2022/04/29 05:38:19;;;;;;;1.40;0.80;;;;;;;21.97;36.95;99975.81;5082114;28;20122;-63
2022/04/29 05:43:29;;;;;;;3.63;0.98;;;;;;;21.99;37.12;99981.81;5071317;28;20078;-65
2022/04/29 05:45:54;;;;;;;2.67;1.00;;;;;;;22.03;37.51;100000.59;5071278;28;20041;-65
2022/04/29 05:48:20;;;;;;;1.80;0.90;;;;;;;22.01;37.36;100000.16;5070812;28;20064;-66
2022/04/29 05:50:46;;;;;;;1.52;0.88;;;;;;;22.02;37.33;100001.78;5071221;28;20045;-64
2022/04/29 05:53:12;;;;;;;2.60;1.20;;;;;;;22.02;37.28;100007.34;5071106;28;20127;-64
2022/04/29 05:55:37;;;;;;;2.20;0.90;;;;;;;22.02;37.50;100007.34;5071113;28;20044;-65
2022/04/29 05:58:03;;;;;;;1.25;0.93;;;;;;;22.00;37.51;99999.31;5052146;28;20082;-71
2022/04/29 06:00:28;;;;;;;2.55;1.00;;;;;;;21.99;37.56;100006.88;5071084;28;20045;-70
2022/04/29 06:02:53;;;;;;;1.40;0.80;;;;;;;22.02;37.43;99998.97;5071092;28;20454;-71
2022/04/29 06:05:19;;;;;;;1.60;0.73;;;;;;;22.03;37.14;100000.59;5071047;28;20504;-70
2022/04/29 06:07:44;;;;;;;1.50;0.80;;;;;;;22.04;37.45;99996.63;5070703;28;20052;-70
2022/04/29 06:10:10;;;;;;;2.00;0.73;;;;;;;22.02;37.30;99998.97;5070810;28;20568;-70
2022/04/29 06:12:40;;;;;;;1.42;0.90;;;;;;;22.05;37.19;99998.22;5079894;28;20877;-70
2022/04/29 06:15:12;;;;;;;1.92;0.90;;;;;;;22.05;37.16;100003.81;5111241;28;20043;-71
2022/04/29 06:17:37;;;;;;;1.27;0.70;;;;;;;22.06;37.04;100011.78;5111371;28;20059;-70
2022/04/29 06:20:03;;;;;;;1.48;0.90;;;;;;;22.05;37.00;100001.81;5111274;28;20632;-70
2022/04/29 06:22:28;;;;;;;1.30;0.88;;;;;;;22.05;37.15;100004.59;5111217;28;20043;-64
2022/04/29 06:24:54;;;;;;;1.88;1.00;;;;;;;22.06;37.03;100010.97;5092819;28;20394;-64
2022/04/29 06:27:19;;;;;;;1.42;0.80;;;;;;;22.07;37.05;100009.81;5111237;28;20050;-64
2022/04/29 06:29:44;;;;;;;3.22;1.10;;;;;;;22.07;37.25;100004.22;5111311;28;20199;-70
2022/04/29 06:32:10;;;;;;;1.25;0.80;;;;;;;22.06;36.95;100006.22;5111187;28;20051;-71
2022/04/29 06:34:35;;;;;;;1.95;1.23;;;;;;;22.09;37.22;100002.75;5111023;28;20051;-70
2022/04/29 06:37:00;;;;;;;4.18;1.00;;;;;;;22.10;36.94;99997.97;5111176;28;20044;-71
2022/04/29 06:39:26;;;;;;;1.65;0.90;;;;;;;22.09;36.89;100007.50;5110865;28;20049;-71
2022/04/29 06:41:51;;;;;;;1.95;0.82;;;;;;;22.10;37.06;100003.53;5111014;28;20096;-64
2022/04/29 06:44:17;;;;;;;1.52;0.80;;;;;;;22.12;36.86;100009.53;5111035;28;20046;-64
2022/04/29 06:46:42;;;;;;;1.80;1.00;;;;;;;22.11;36.72;100000.38;5110968;28;20043;-64
2022/04/29 06:49:09;;;;;;;3.15;0.90;;;;;;;22.12;36.94;100007.56;5110862;28;20048;-64
2022/04/29 06:51:35;;;;;;;1.30;0.90;;;;;;;22.11;37.00;100008.75;5110997;28;20055;-64
2022/04/29 06:54:00;;;;;;;1.70;1.00;;;;;;;22.12;36.79;100015.13;5110758;28;20043;-66
2022/04/29 06:56:26;;;;;;;1.70;1.00;;;;;;;22.20;36.78;100014.06;5107084;28;20047;-64
2022/04/29 06:58:52;;;;;;;1.85;1.30;;;;;;;22.18;37.24;100006.09;5097424;28;20042;-68
2022/04/29 07:01:18;;;;;;;1.88;0.95;;;;;;;22.17;37.33;100004.47;5108387;28;20047;-68
2022/04/29 07:03:43;;;;;;;2.00;0.90;;;;;;;22.18;37.26;100008.06;5110277;28;20048;-68
2022/04/29 07:06:09;;;;;;;7.15;1.05;;;;;;;22.22;37.62;100006.97;5106268;28;20134;-71
2022/04/29 07:08:35;;;;;;;2.13;1.10;;;;;;;22.25;37.97;100002.63;5108428;28;20048;-68
2022/04/29 07:11:00;;;;;;;2.00;1.10;;;;;;;22.24;37.88;99995.44;5092730;28;20043;-68
2022/04/29 07:13:26;;;;;;;2.05;1.08;;;;;;;22.28;38.03;99999.09;5108337;28;20051;-67
2022/04/29 07:15:51;;;;;;;2.13;1.20;;;;;;;22.31;38.04;99987.22;5106974;28;20040;-65
2022/04/29 07:18:17;;;;;;;2.83;1.10;;;;;;;22.34;37.80;99992.03;5107897;28;20126;-65
2022/04/29 07:20:42;;;;;;;2.10;0.98;;;;;;;22.30;37.96;99980.03;5103140;28;20491;-65
2022/04/29 07:23:08;;;;;;;5.90;1.15;;;;;;;22.35;37.93;99982.50;5089505;28;20040;-65
2022/04/29 07:25:34;;;;;;;5.32;1.10;;;;;;;22.36;37.60;99977.72;5104838;28;20092;-64
2022/04/29 07:28:00;;;;;;;2.75;1.20;;;;;;;22.37;37.08;99974.59;5091511;28;21025;-64
2022/04/29 07:30:26;;;;;;;3.10;1.52;;;;;;;22.38;36.71;99965.03;5077646;28;20098;-63
2022/04/29 07:32:52;;;;;;;2.92;1.50;;;;;;;22.41;36.43;99969.06;5087205;28;20400;-63
2022/04/29 07:43:30;;;;;;;6.22;1.80;;;;;;;22.67;36.41;99952.38;5074260;28;20051;-64
2022/04/29 07:45:58;;;;;;;4.93;1.85;;;;;;;22.73;35.96;99953.66;5082104;28;20041;-61
2022/04/29 07:48:23;;;;;;;5.90;1.90;;;;;;;22.71;36.30;99956.00;5072782;28;20435;-59
2022/04/29 07:50:49;;;;;;;2.60;1.63;;;;;;;22.75;36.15;99956.06;5070552;28;20044;-61
2022/04/29 07:53:15;;;;;;;3.20;1.77;;;;;;;22.75;36.19;99956.06;5080641;28;20055;-60
2022/04/29 07:55:41;;;;;;;3.97;1.70;;;;;;;22.71;36.66;99952.41;5069467;28;20033;-64
2022/04/29 07:58:07;;;;;;;4.40;1.67;;;;;;;22.83;36.16;99957.78;5074508;28;20028;-68
2022/04/29 08:00:32;;;;;;;3.15;1.40;;;;;;;22.86;36.54;99934.78;5084987;28;20117;-68
2022/04/29 08:03:01;;;;;;;4.47;1.40;;;;;;;22.91;36.47;99940.00;5099537;28;20047;-63
2022/04/29 08:05:28;;;;;;;2.50;1.38;;;;;;;22.86;36.37;99937.56;5092556;28;20051;-63
2022/04/29 08:07:55;;;;;;;7.18;1.55;;;;;;;22.90;36.18;99943.19;5096744;28;20050;-62
2022/04/29 08:10:22;;;;;;;3.50;1.50;;;;;;;23.06;36.00;99941.00;5094380;28;20040;-60
2022/04/29 08:12:47;;;;;;;6.05;1.48;;;;;;;22.96;36.20;99938.88;5094416;28;20122;-62
2022/04/29 08:15:13;;;;;;;3.72;1.55;;;;;;;23.01;36.40;99936.59;5066906;28;20233;-62
2022/04/29 08:17:40;;;;;;;5.45;1.35;;;;;;;23.05;36.38;99933.81;5072400;28;20037;-63
2022/04/29 08:20:08;;;;;;;2.72;1.30;;;;;;;23.13;36.30;99927.16;5083265;28;20500;-62
2022/04/29 08:22:34;;;;;;;3.33;1.15;;;;;;;23.20;35.91;99926.44;5086829;28;20076;-64
2022/04/29 08:25:00;;;;;;;3.25;1.33;;;;;;;23.18;36.22;99920.44;5086254;28;20088;-58
2022/04/29 08:27:28;;;;;;;3.53;1.30;;;;;;;23.41;35.99;99918.34;5081092;28;20051;-65
2022/04/29 08:29:53;;;;;;;8.60;1.70;;;;;;;23.90;35.19;99920.13;5057945;28;20051;-60
2022/04/29 08:32:18;;;;;;;4.90;1.60;;;;;;;24.12;34.49;99910.75;5081018;28;20040;-61
2022/04/29 08:34:44;;;;;;;4.10;1.50;;;;;;;24.24;34.43;99917.25;5085177;28;20571;-64
2022/04/29 08:37:09;;;;;;;4.13;1.48;;;;;;;24.27;34.52;99916.47;5097904;28;20039;-65
2022/04/29 08:39:35;;;;;;;4.38;1.50;;;;;;;24.47;34.04;99919.88;5108287;28;20032;-62
2022/04/29 08:42:02;;;;;;;7.25;1.50;;;;;;;24.77;33.49;99916.88;5092159;28;20043;-66
2022/04/29 08:44:31;;;;;;;2.83;1.50;;;;;;;25.04;32.81;99911.88;5086711;28;20048;-63
2022/04/29 08:46:57;;;;;;;5.10;1.45;;;;;;;25.16;32.47;99923.56;5086913;28;20067;-61
2022/04/29 08:49:25;;;;;;;5.07;1.65;;;;;;;25.29;32.39;99920.38;5084690;28;20106;-62
2022/04/29 08:51:51;;;;;;;4.47;1.40;;;;;;;25.31;32.24;99924.41;5086055;28;20642;-64
2022/04/29 09:00:01;;;;;;;2.65;1.20;;;;;;;25.55;31.99;99911.69;5094181;28;20059;-58
2022/04/29 09:02:27;;;;;;;3.28;1.50;;;;;;;25.66;31.38;99904.13;5098855;28;20055;-59
2022/04/29 09:04:55;;;;;;;3.63;1.40;;;;;;;25.61;31.55;99904.50;5099445;28;20036;-61
2022/04/29 09:08:10;;;;;;;3.88;1.40;;;;;;;25.60;31.57;99902.91;5101072;28;20081;-63
2022/04/29 09:10:36;;;;;;;3.63;1.38;;;;;;;25.68;31.68;99896.13;5083975;28;20639;-60
2022/04/29 09:13:17;;;;;;;2.85;1.25;;;;;;;25.74;31.42;99896.59;5097988;28;20050;-61
2022/04/29 09:15:49;;;;;;;4.20;1.50;;;;;;;25.77;31.38;99893.78;5104245;28;20068;-64
2022/04/29 09:18:27;;;;;;;3.42;1.48;;;;;;;25.83;31.02;99890.59;5101765;28;20075;-62
2022/04/29 09:20:53;;;;;;;3.03;1.30;;;;;;;25.90;31.33;99885.00;5090094;28;20492;-63
2022/04/29 09:23:26;;;;;;;4.97;1.30;;;;;;;25.89;31.09;99880.59;5085495;28;20058;-65
2022/04/29 09:25:51;;;;;;;4.60;1.35;;;;;;;25.87;31.10;99880.19;5107149;28;20043;-63
2022/04/29 09:28:17;;;;;;;3.10;1.52;;;;;;;25.89;31.23;99869.38;5103389;28;20040;-64
2022/04/29 09:30:42;;;;;;;6.10;1.35;;;;;;;25.91;31.10;99867.78;5101667;28;20047;-65
2022/04/29 09:33:21;;;;;;;5.63;1.50;;;;;;;25.90;31.10;99860.56;5092223;28;20085;-63
2022/04/29 09:35:49;;;;;;;3.20;1.45;;;;;;;25.91;31.46;99858.56;5085145;28;20047;-68
2022/04/29 09:41:00;;;;;;;5.63;1.50;;;;;;;25.95;31.20;99850.97;5072843;28;20071;-64
2022/04/29 09:43:36;;;;;;;3.22;1.30;;;;;;;25.89;31.26;99849.75;5084323;28;20048;-64
2022/04/29 09:46:22;;;;;;;4.05;1.63;;;;;;;25.95;31.00;99846.16;5099287;28;20092;-62
2022/04/29 09:49:04;;;;;;;3.85;1.30;;;;;;;25.95;30.87;99843.38;5105903;28;20086;-60
2022/04/29 09:51:51;;;;;;;5.87;1.50;;;;;;;25.91;31.14;99842.53;5102160;28;20043;-61
2022/04/29 09:54:19;;;;;;;2.55;1.27;;;;;;;25.90;31.16;99837.34;5093594;28;20048;-65
2022/04/29 09:56:46;;;;;;;4.03;1.50;;;;;;;25.87;31.27;99832.56;5084587;28;20127;-61
2022/04/29 09:59:12;;;;;;;4.63;1.23;;;;;;;25.83;31.33;99826.13;5077517;28;20036;-72
2022/04/29 10:01:40;;;;;;;5.50;1.20;;;;;;;25.87;30.90;99818.53;5076978;28;20444;-65
2022/04/29 10:04:06;;;;;;;2.45;1.17;;;;;;;25.82;31.48;99814.13;5080929;28;20134;-66
2022/04/29 10:06:32;;;;;;;3.38;1.30;;;;;;;25.80;31.20;99816.53;5071487;28;20115;-66
2022/04/29 10:08:59;;;;;;;2.15;1.17;;;;;;;25.91;31.12;99808.91;5070966;28;20048;-63
2022/04/29 10:11:31;;;;;;;3.25;1.10;;;;;;;25.90;31.26;99809.31;5072470;28;20047;-61
2022/04/29 10:14:01;;;;;;;4.82;1.20;;;;;;;25.89;31.48;99802.91;5089194;28;20134;-62
2022/04/29 10:16:31;;;;;;;2.55;1.10;;;;;;;25.85;31.19;99801.31;5081696;28;20087;-63
2022/04/29 10:21:47;;;;;;;3.90;1.52;;;;;;;25.78;31.31;99797.28;5094547;28;20136;-66
2022/04/29 10:24:12;;;;;;;4.55;1.40;;;;;;;25.79;31.33;99787.72;5095992;28;20046;-64
2022/04/29 10:26:39;;;;;;;4.28;1.40;;;;;;;25.79;31.38;99782.09;5088070;28;20040;-65
2022/04/29 10:29:06;;;;;;;3.03;1.20;;;;;;;25.82;31.70;99782.50;5082324;28;20051;-62
2022/04/29 10:31:31;;;;;;;3.83;1.30;;;;;;;25.73;31.62;99778.09;5095785;28;20031;-65
2022/04/29 10:34:28;;;;;;;5.47;1.40;;;;;;;25.77;31.64;99772.47;5085449;28;20044;-64
2022/04/29 10:36:53;;;;;;;2.72;1.13;;;;;;;25.81;31.79;99764.88;5089645;28;20195;-63
2022/04/29 10:39:21;;;;;;;3.58;1.30;;;;;;;25.82;31.44;99763.69;5105335;28;20035;-63
2022/04/29 10:41:59;;;;;;;5.65;1.38;;;;;;;25.86;31.40;99764.50;5079393;28;20503;-65
2022/04/29 10:44:25;;;;;;;7.30;1.40;;;;;;;25.82;31.86;99758.06;5086398;28;20107;-64
2022/04/29 10:46:50;;;;;;;11.93;1.60;;;;;;;25.81;31.67;99761.28;5093942;28;20511;-63
2022/04/29 10:49:27;;;;;;;8.23;1.42;;;;;;;25.81;31.88;99758.47;5085424;28;20051;-64
2022/04/29 10:52:00;;;;;;;22.58;1.52;;;;;;;25.86;31.78;99755.25;5088769;28;20075;-62
2022/04/29 10:54:35;;;;;;;8.88;1.55;;;;;;;25.85;31.56;99750.88;5104542;28;20055;-64
2022/04/29 10:57:02;;;;;;;10.85;1.60;;;;;;;25.86;31.72;99746.84;5109656;28;20081;-62
2022/04/29 10:59:47;;;;;;;9.45;1.67;;;;;;;25.88;31.73;99745.28;5087900;28;20056;-62
2022/04/29 11:02:23;;;;;;;11.88;1.83;;;;;;;25.90;31.34;99750.47;5072850;28;20044;-63
2022/04/29 11:04:48;;;;;;;7.38;2.50;;;;;;;25.94;31.16;99740.88;5103853;28;20052;-64
2022/04/29 11:07:44;;;;;;;10.40;3.50;;;;;;;25.89;31.07;99746.88;5109013;28;20387;-63
2022/04/29 11:10:18;;;;;;;7.53;3.92;;;;;;;25.90;31.26;99740.06;5100910;28;20047;-66
2022/04/29 11:13:11;;;;;;;7.30;3.17;;;;;;;25.88;30.80;99728.44;5108489;28;20039;-63
2022/04/29 11:15:42;;;;;;;5.15;2.67;;;;;;;25.88;30.84;99734.06;5099310;28;20115;-63
2022/04/29 11:18:24;;;;;;;6.65;2.50;;;;;;;25.87;30.45;99720.47;5104891;28;20443;-63
2022/04/29 11:20:56;;;;;;;4.93;2.05;;;;;;;25.94;30.80;99720.44;5109071;28;20092;-63
2022/04/29 11:26:14;;;;;;;3.20;1.67;;;;;;;25.96;30.56;99712.44;5105904;28;20073;-63
2022/04/29 11:28:40;;;;;;;4.07;1.80;;;;;;;26.02;30.68;99713.63;5094750;28;20453;-63
2022/04/29 11:31:08;;;;;;;5.55;1.92;;;;;;;25.97;30.80;99697.22;5094449;28;20642;-64
2022/04/29 11:33:35;;;;;;;3.00;1.60;;;;;;;25.98;30.30;99687.59;5086704;28;20067;-63
2022/04/29 11:36:01;;;;;;;6.07;1.75;;;;;;;26.00;30.64;99679.56;5100502;28;20051;-62
2022/04/29 11:38:28;;;;;;;4.47;1.73;;;;;;;25.93;30.61;99666.41;5109104;28;20039;-62
2022/04/29 11:40:54;;;;;;;3.53;1.67;;;;;;;25.92;30.52;99653.56;5103805;28;20047;-61
2022/04/29 11:43:23;;;;;;;2.63;1.35;;;;;;;25.98;30.57;99668.75;5107131;28;20048;-62
2022/04/29 11:46:05;;;;;;;3.90;1.50;;;;;;;25.91;30.92;99659.56;5104003;28;20051;-62
2022/04/29 11:48:30;;;;;;;3.22;1.50;;;;;;;25.89;31.30;99654.38;5104562;28;20122;-65
2022/04/29 11:50:57;;;;;;;3.25;1.50;;;;;;;25.83;30.72;99658.78;5093246;28;20122;-65
2022/04/29 11:53:23;;;;;;;2.55;1.40;;;;;;;25.79;31.12;99647.59;5096222;28;20047;-68
2022/04/29 11:55:52;;;;;;;8.32;1.40;;;;;;;25.69;31.16;99648.38;5091178;28;20065;-64
2022/04/29 11:58:18;;;;;;;2.80;1.42;;;;;;;25.50;31.36;99651.59;5085784;28;20049;-63